Maradi Airport


Codes: DRRM/MFQ
Name: Maradi Airport
City: Maradi
Country: Niger
Elevation: 1240 ft.

Photos at Maradi Airport


   Photos courtesy of SpottingLog. You can add your own sightings and photos by signing up for a free trial today.



No photos found.

Weather at Maradi Airport


Time (UTC)DescriptionTempratureWindCloud coverageVisibilityPressureHumidity
21-Feb-2024 03:00Overcast Clouds21°C11 mph, E94%10000m1009hPa13%
21-Feb-2024 06:00Overcast Clouds20°C11 mph, E93%10000m1010hPa14%
21-Feb-2024 09:00Overcast Clouds26°C16 mph, E89%10000m1011hPa10%
21-Feb-2024 12:00Broken Clouds35°C13 mph, E58%10000m1008hPa7%
21-Feb-2024 15:00Overcast Clouds36°C9 mph, E93%10000m1006hPa7%
21-Feb-2024 18:00Overcast Clouds29°C9 mph, NE96%10000m1007hPa11%
21-Feb-2024 21:00Scattered Clouds26°C11 mph, NE47%10000m1008hPa14%
22-Feb-2024 00:00Broken Clouds23°C11 mph, NE58%10000m1008hPa14%
22-Feb-2024 03:00Broken Clouds22°C11 mph, NE55%10000m1008hPa14%
22-Feb-2024 06:00Broken Clouds22°C11 mph, E72%10000m1009hPa13%
22-Feb-2024 09:00Broken Clouds29°C13 mph, E81%10000m1010hPa10%
22-Feb-2024 12:00Broken Clouds35°C11 mph, SE76%10000m1008hPa9%
22-Feb-2024 15:00Broken Clouds36°C9 mph, SE57%10000m1005hPa9%
22-Feb-2024 18:00Broken Clouds30°C13 mph, E62%10000m1007hPa13%
22-Feb-2024 21:00Broken Clouds26°C9 mph, E58%10000m1009hPa16%
23-Feb-2024 00:00Broken Clouds26°C9 mph, E79%10000m1009hPa16%
23-Feb-2024 03:00Overcast Clouds24°C9 mph, E100%10000m1009hPa20%
23-Feb-2024 06:00Overcast Clouds23°C9 mph, SE99%10000m1010hPa21%
23-Feb-2024 09:00Clear Sky30°C9 mph, E10%10000m1011hPa20%
23-Feb-2024 12:00Clear Sky35°C7 mph, E5%10000m1009hPa19%
23-Feb-2024 15:00Few Clouds37°C4 mph, E11%10000m1005hPa15%
23-Feb-2024 18:00Scattered Clouds32°C9 mph, E35%10000m1007hPa19%
23-Feb-2024 21:00Broken Clouds29°C11 mph, E69%10000m1010hPa26%
24-Feb-2024 00:00Scattered Clouds26°C7 mph, E36%10000m1010hPa37%
24-Feb-2024 03:00Scattered Clouds24°C9 mph, E47%10000m1010hPa40%
24-Feb-2024 06:00Broken Clouds23°C9 mph, E61%10000m1012hPa41%
24-Feb-2024 09:00Broken Clouds32°C11 mph, E73%10000m1013hPa22%
24-Feb-2024 12:00Scattered Clouds37°C11 mph, SE49%10000m1010hPa16%
24-Feb-2024 15:00Scattered Clouds37°C2 mph, SE29%10000m1007hPa15%
24-Feb-2024 18:00Scattered Clouds33°C7 mph, NE36%10000m1008hPa19%
24-Feb-2024 21:00Overcast Clouds31°C9 mph, E88%10000m1010hPa21%
25-Feb-2024 00:00Broken Clouds28°C9 mph, E67%10000m1010hPa27%
25-Feb-2024 03:00Few Clouds26°C11 mph, E13%10000m1010hPa29%
25-Feb-2024 06:00Scattered Clouds24°C11 mph, E25%10000m1012hPa26%
25-Feb-2024 09:00Few Clouds33°C18 mph, E11%10000m1013hPa13%
25-Feb-2024 12:00Clear Sky39°C13 mph, E6%10000m1010hPa11%
25-Feb-2024 15:00Clear Sky39°C9 mph, E0%10000m1007hPa11%
25-Feb-2024 18:00Clear Sky33°C7 mph, E2%10000m1008hPa15%
25-Feb-2024 21:00Clear Sky30°C9 mph, NE2%10000m1011hPa18%
26-Feb-2024 00:00Clear Sky28°C11 mph, NE3%10000m1010hPa17%